Happy Valley, North Carolina
Current Conditions -  °F | °C
As of 9:35 PM on Tuesday 21 Oct 2014 (Local Time) from KMRN Reporting Station
Clear Clear  
Wind Chill: 56°   Ceiling: Unl
Heat Index: 56°   Visibility: 10mi
Dew Point: 37°   Wind: 7mph
Humidity: 48%   Direction: 310°NW
Pressure: 30.05"   Gusts: NA
Location:  35.9886°N, 81.5588°W
Report Text: KMRN 220135Z AUTO 31006KT 10SM CLR 14/03 A3005 RMK AO2 T01350026
Loading
Personal Weather Stations






























Interactive Weather Map
Tropical Storm Tracking
New forecast layout! Learn more

10-Day Weather Forecast

Advertisements
Track Severe Weather on mobile